Time;durP1;ratioP1;P1;durP2;ratioP2;P2;SDS_P1;SDS_P2;PMS_P1;PMS_P2;Temp;Humidity;BMP_temperature;BMP_pressure;BME280_temperature;BME280_humidity;BME280_pressure;Samples;Min_cycle;Max_cycle;Signal;HPM_P1;HPM_P2
2021/10/12 00:00:10;;;;;;;16.37;3.47;;;;;;;;;;5035336;28;20398;-49
2021/10/12 00:02:36;;;;;;;8.30;4.20;;;;;;;;;;5034974;28;20511;-50
2021/10/12 00:05:04;;;;;;;12.00;4.47;;;;;;;;;;5035242;28;20405;-49
2021/10/12 00:07:31;;;;;;;9.77;5.57;;;;;;;;;;5034979;28;20481;-48
2021/10/12 00:09:57;;;;;;;12.13;6.43;;;;;;;;;;5035135;28;20537;-49
2021/10/12 00:12:23;;;;;;;11.77;6.10;;;;;;;;;;5035070;28;20465;-48
2021/10/12 00:14:50;;;;;;;11.93;6.30;;;;;;;;;;5035122;28;20455;-50
2021/10/12 00:17:16;;;;;;;15.07;6.60;;;;;;;;;;5034979;28;20395;-48
2021/10/12 00:19:42;;;;;;;10.00;6.73;;;;;;;;;;5034971;28;20494;-48
2021/10/12 00:22:08;;;;;;;17.60;6.20;;;;;;;;;;5034557;28;20422;-47
2021/10/12 00:24:34;;;;;;;27.83;6.83;;;;;;;;;;5034892;28;20399;-49
2021/10/12 00:27:00;;;;;;;13.80;8.00;;;;;;;;;;5034856;28;20765;-49
2021/10/12 00:29:26;;;;;;;14.30;6.70;;;;;;;;;;5034697;28;20462;-49
2021/10/12 00:31:52;;;;;;;17.33;6.70;;;;;;;;;;5034420;28;20445;-49
2021/10/12 00:34:19;;;;;;;16.83;6.20;;;;;;;;;;5034700;28;20399;-48
2021/10/12 00:36:45;;;;;;;15.87;6.83;;;;;;;;;;5034396;28;20404;-50
2021/10/12 00:39:11;;;;;;;12.93;6.87;;;;;;;;;;5034589;28;20410;-50
2021/10/12 00:41:38;;;;;;;14.73;6.60;;;;;;;;;;5034464;28;20432;-49
2021/10/12 00:44:06;;;;;;;11.27;6.20;;;;;;;;;;5034405;28;20777;-48
2021/10/12 00:46:33;;;;;;;20.37;8.00;;;;;;;;;;5034407;28;20464;-49
2021/10/12 00:49:01;;;;;;;16.63;7.23;;;;;;;;;;5034299;28;20515;-50
2021/10/12 00:51:28;;;;;;;11.00;7.57;;;;;;;;;;5034121;28;20426;-48
2021/10/12 00:53:55;;;;;;;19.73;7.53;;;;;;;;;;5034123;28;20417;-49
2021/10/12 00:56:21;;;;;;;12.23;7.37;;;;;;;;;;5033838;28;20489;-49
2021/10/12 00:58:48;;;;;;;13.07;6.90;;;;;;;;;;5034224;28;20407;-48
2021/10/12 01:01:14;;;;;;;18.17;7.60;;;;;;;;;;5034106;28;20409;-48
2021/10/12 01:03:40;;;;;;;14.13;6.87;;;;;;;;;;5033863;28;20493;-46
2021/10/12 01:06:06;;;;;;;23.10;7.37;;;;;;;;;;5033227;28;20906;-49
2021/10/12 01:08:32;;;;;;;11.63;7.27;;;;;;;;;;5034046;28;20503;-47
2021/10/12 01:10:58;;;;;;;14.53;7.10;;;;;;;;;;5034046;28;20402;-49
2021/10/12 01:13:25;;;;;;;15.37;6.73;;;;;;;;;;5033703;28;20419;-49
2021/10/12 01:15:52;;;;;;;13.30;6.53;;;;;;;;;;5034311;28;20415;-49
2021/10/12 01:18:19;;;;;;;18.73;8.47;;;;;;;;;;5033754;28;20894;-48
2021/10/12 01:20:47;;;;;;;22.83;7.50;;;;;;;;;;5033760;28;20398;-49
2021/10/12 01:23:14;;;;;;;16.07;7.33;;;;;;;;;;5033500;28;20423;-49
2021/10/12 01:25:40;;;;;;;12.23;7.27;;;;;;;;;;5033773;28;20403;-49
2021/10/12 01:28:08;;;;;;;12.10;7.90;;;;;;;;;;5033694;28;20406;-49
2021/10/12 01:30:35;;;;;;;16.23;6.80;;;;;;;;;;5033537;28;20458;-49
2021/10/12 01:33:01;;;;;;;14.00;7.50;;;;;;;;;;5033520;28;20985;-49
2021/10/12 01:35:27;;;;;;;13.77;9.17;;;;;;;;;;5033741;28;20473;-48
2021/10/12 01:37:53;;;;;;;17.63;9.07;;;;;;;;;;5033524;28;20453;-48
2021/10/12 01:40:19;;;;;;;11.73;7.53;;;;;;;;;;5033595;28;20408;-47
2021/10/12 01:42:45;;;;;;;9.33;6.53;;;;;;;;;;5033106;28;21041;-49
2021/10/12 01:45:12;;;;;;;16.27;9.10;;;;;;;;;;5033298;28;20402;-49
2021/10/12 01:47:38;;;;;;;15.83;7.60;;;;;;;;;;5033190;28;20800;-48
2021/10/12 01:50:05;;;;;;;18.70;8.50;;;;;;;;;;5033369;28;20466;-48
2021/10/12 01:52:31;;;;;;;11.03;8.60;;;;;;;;;;5032914;28;20497;-49
2021/10/12 01:54:57;;;;;;;16.97;8.43;;;;;;;;;;5033140;28;20435;-49
2021/10/12 01:57:23;;;;;;;9.83;8.07;;;;;;;;;;5033144;28;20456;-48
2021/10/12 01:59:49;;;;;;;24.23;9.40;;;;;;;;;;5033102;28;20886;-48
2021/10/12 02:02:16;;;;;;;14.00;9.10;;;;;;;;;;5032762;28;20487;-48
2021/10/12 02:04:42;;;;;;;15.30;8.87;;;;;;;;;;5033058;28;20830;-49
2021/10/12 02:07:08;;;;;;;14.10;9.63;;;;;;;;;;5032833;28;20430;-49
2021/10/12 02:09:34;;;;;;;15.63;9.37;;;;;;;;;;5032114;28;20841;-49
2021/10/12 02:12:02;;;;;;;18.83;9.93;;;;;;;;;;5032474;28;20457;-49
2021/10/12 02:14:29;;;;;;;17.60;10.53;;;;;;;;;;5032746;28;20430;-49
2021/10/12 02:16:55;;;;;;;18.00;10.57;;;;;;;;;;5032726;28;20486;-50
2021/10/12 02:19:21;;;;;;;17.53;12.53;;;;;;;;;;5032704;28;20433;-49
2021/10/12 02:21:47;;;;;;;18.43;13.07;;;;;;;;;;5032703;28;20421;-50
2021/10/12 02:24:13;;;;;;;21.17;12.80;;;;;;;;;;5032262;28;20406;-49
2021/10/12 02:26:39;;;;;;;20.80;13.63;;;;;;;;;;5032556;28;20901;-48
2021/10/12 02:29:05;;;;;;;19.67;12.80;;;;;;;;;;5032498;28;20462;-50
2021/10/12 02:31:31;;;;;;;24.47;13.70;;;;;;;;;;5032477;28;20433;-50
2021/10/12 02:33:57;;;;;;;21.53;13.47;;;;;;;;;;5032188;28;20399;-48
2021/10/12 02:36:23;;;;;;;17.27;13.17;;;;;;;;;;5032332;28;20395;-47
2021/10/12 02:38:49;;;;;;;17.93;12.50;;;;;;;;;;5032372;28;20403;-48
2021/10/12 02:41:15;;;;;;;21.60;15.00;;;;;;;;;;5032330;28;20413;-49
2021/10/12 02:43:41;;;;;;;19.53;13.00;;;;;;;;;;5032035;28;20490;-47
2021/10/12 02:46:08;;;;;;;16.57;13.00;;;;;;;;;;5032263;28;20399;-48
2021/10/12 02:48:34;;;;;;;22.13;12.77;;;;;;;;;;5032068;28;20526;-48
2021/10/12 02:50:59;;;;;;;15.00;11.90;;;;;;;;;;5032130;28;20501;-49
2021/10/12 02:53:26;;;;;;;19.53;12.20;;;;;;;;;;5031791;28;20445;-49
2021/10/12 02:55:51;;;;;;;22.43;12.57;;;;;;;;;;5032155;28;20402;-50
2021/10/12 02:58:17;;;;;;;19.57;13.43;;;;;;;;;;5032030;28;20456;-49
2021/10/12 03:00:43;;;;;;;22.43;14.30;;;;;;;;;;5032088;28;20403;-49
2021/10/12 03:03:10;;;;;;;20.70;14.30;;;;;;;;;;5031815;28;20425;-48
2021/10/12 03:05:36;;;;;;;26.53;13.50;;;;;;;;;;5031990;28;20431;-50
2021/10/12 03:08:02;;;;;;;33.20;13.93;;;;;;;;;;5031852;28;20398;-48
2021/10/12 03:10:28;;;;;;;18.33;12.43;;;;;;;;;;5031858;28;20548;-50
2021/10/12 03:12:54;;;;;;;24.57;13.83;;;;;;;;;;5031560;28;20429;-48
2021/10/12 03:15:20;;;;;;;21.40;14.00;;;;;;;;;;5031915;28;20890;-49
2021/10/12 03:17:46;;;;;;;17.97;13.20;;;;;;;;;;5031698;28;20403;-48
2021/10/12 03:20:12;;;;;;;24.97;14.90;;;;;;;;;;5031851;28;20406;-49
2021/10/12 03:22:39;;;;;;;25.30;14.00;;;;;;;;;;5031528;28;20782;-48
2021/10/12 03:25:05;;;;;;;21.97;13.57;;;;;;;;;;5031776;28;20411;-49
2021/10/12 03:27:31;;;;;;;17.50;12.53;;;;;;;;;;5031666;28;20467;-49
2021/10/12 03:29:57;;;;;;;23.20;13.10;;;;;;;;;;5031670;28;20449;-49
2021/10/12 03:32:23;;;;;;;27.83;16.20;;;;;;;;;;5031249;28;20414;-49
2021/10/12 03:34:49;;;;;;;18.90;13.77;;;;;;;;;;5031704;28;20405;-48
2021/10/12 03:37:15;;;;;;;27.03;16.07;;;;;;;;;;5031624;28;20897;-47
2021/10/12 03:39:41;;;;;;;20.03;15.20;;;;;;;;;;5031660;28;20402;-48
2021/10/12 03:42:07;;;;;;;27.37;15.60;;;;;;;;;;5031345;28;20431;-49
2021/10/12 03:44:33;;;;;;;26.60;16.57;;;;;;;;;;5031559;28;20413;-49
2021/10/12 03:46:59;;;;;;;28.83;17.80;;;;;;;;;;5031365;28;20778;-48
2021/10/12 03:49:25;;;;;;;31.07;17.80;;;;;;;;;;5031545;28;20484;-49
2021/10/12 03:51:51;;;;;;;32.53;17.50;;;;;;;;;;5031200;28;20521;-48
2021/10/12 03:54:17;;;;;;;31.90;19.07;;;;;;;;;;5031500;28;20398;-48
2021/10/12 03:56:43;;;;;;;31.87;19.87;;;;;;;;;;5031443;28;20451;-47
2021/10/12 03:59:09;;;;;;;38.23;20.10;;;;;;;;;;5031432;28;20414;-48
2021/10/12 04:01:35;;;;;;;35.57;19.57;;;;;;;;;;5031251;28;20448;-48
2021/10/12 04:04:01;;;;;;;35.90;19.93;;;;;;;;;;5031445;28;20413;-48
2021/10/12 04:06:27;;;;;;;40.63;21.60;;;;;;;;;;5031422;28;20820;-48
2021/10/12 04:08:53;;;;;;;32.73;20.40;;;;;;;;;;5031291;28;20541;-50
2021/10/12 04:11:19;;;;;;;33.90;21.63;;;;;;;;;;5031292;28;20394;-49
2021/10/12 04:13:45;;;;;;;38.40;19.27;;;;;;;;;;5031077;28;20877;-48
2021/10/12 04:16:11;;;;;;;29.27;18.50;;;;;;;;;;5031149;28;20456;-48
2021/10/12 04:18:37;;;;;;;38.03;18.83;;;;;;;;;;5031217;28;20402;-49
2021/10/12 04:21:03;;;;;;;29.33;17.20;;;;;;;;;;5031254;28;20878;-49
2021/10/12 04:23:29;;;;;;;28.87;17.77;;;;;;;;;;5030998;28;20446;-49
2021/10/12 04:25:56;;;;;;;27.80;15.67;;;;;;;;;;5031188;28;20386;-50
2021/10/12 04:28:22;;;;;;;25.80;15.93;;;;;;;;;;5031113;28;20401;-49
2021/10/12 04:30:48;;;;;;;28.67;16.30;;;;;;;;;;5031035;28;20387;-49
2021/10/12 04:33:15;;;;;;;23.27;15.17;;;;;;;;;;5034367;28;20989;-47
2021/10/12 04:35:41;;;;;;;19.97;14.43;;;;;;;;;;5034748;28;20430;-49
2021/10/12 04:38:07;;;;;;;20.80;13.53;;;;;;;;;;5034574;28;20481;-47
2021/10/12 04:40:33;;;;;;;25.87;13.93;;;;;;;;;;5034627;28;20492;-48
2021/10/12 04:43:03;;;;;;;26.37;13.43;;;;;;;;;;5034242;28;20463;-48
2021/10/12 04:45:29;;;;;;;20.83;12.37;;;;;;;;;;5034717;28;21138;-49
2021/10/12 04:47:55;;;;;;;26.00;12.30;;;;;;;;;;5034361;28;20413;-48
2021/10/12 04:50:21;;;;;;;23.60;13.37;;;;;;;;;;5034401;28;20453;-49
2021/10/12 04:52:47;;;;;;;21.27;12.70;;;;;;;;;;5034000;28;20457;-49
2021/10/12 04:55:13;;;;;;;20.90;12.30;;;;;;;;;;5034370;28;20768;-50
2021/10/12 04:57:39;;;;;;;19.43;12.93;;;;;;;;;;5034213;28;20403;-48
2021/10/12 05:00:06;;;;;;;20.53;12.00;;;;;;;;;;5034108;28;20829;-49
2021/10/12 05:02:32;;;;;;;29.37;13.87;;;;;;;;;;5033926;28;20980;-49
2021/10/12 05:04:58;;;;;;;22.53;13.47;;;;;;;;;;5033998;28;20867;-49
2021/10/12 05:07:24;;;;;;;20.60;13.77;;;;;;;;;;5034073;28;20416;-49
2021/10/12 05:09:50;;;;;;;21.80;13.40;;;;;;;;;;5034024;28;20545;-49
2021/10/12 05:12:16;;;;;;;31.90;14.70;;;;;;;;;;5033713;28;20427;-49
2021/10/12 05:14:42;;;;;;;23.93;14.53;;;;;;;;;;5033996;28;20413;-49
2021/10/12 05:17:16;;;;;;;26.70;14.83;;;;;;;;;;5034006;28;20401;-49
2021/10/12 05:19:42;;;;;;;32.77;17.30;;;;;;;;;;5033938;28;20403;-49
2021/10/12 05:22:08;;;;;;;34.47;17.10;;;;;;;;;;5033507;28;20460;-48
2021/10/12 05:24:34;;;;;;;35.97;18.00;;;;;;;;;;5033850;28;20442;-47
2021/10/12 05:27:00;;;;;;;35.93;17.27;;;;;;;;;;5033622;28;20445;-48
2021/10/12 05:29:26;;;;;;;33.93;18.40;;;;;;;;;;5033625;28;20484;-49
2021/10/12 05:31:51;;;;;;;29.27;18.23;;;;;;;;;;5033438;28;20418;-49
2021/10/12 05:34:20;;;;;;;35.67;21.00;;;;;;;;;;5033610;28;20798;-49
2021/10/12 05:36:46;;;;;;;38.30;20.37;;;;;;;;;;5033594;28;20430;-49
2021/10/12 05:39:12;;;;;;;30.37;19.80;;;;;;;;;;5033475;28;20403;-49
2021/10/12 05:41:38;;;;;;;37.90;19.47;;;;;;;;;;5033351;28;20430;-48
2021/10/12 05:44:04;;;;;;;45.07;22.17;;;;;;;;;;5033349;28;20413;-50
2021/10/12 05:46:30;;;;;;;37.67;21.67;;;;;;;;;;5033360;28;20947;-50
2021/10/12 05:48:57;;;;;;;33.23;19.77;;;;;;;;;;5033348;28;20450;-49
2021/10/12 05:51:25;;;;;;;35.90;20.03;;;;;;;;;;5033042;28;20409;-49
2021/10/12 05:53:53;;;;;;;40.07;24.03;;;;;;;;;;5032950;28;20405;-49
2021/10/12 05:58:51;;;;;;;45.03;23.20;;;;;;;;;;5033398;28;20416;-45
2021/10/12 06:01:18;;;;;;;37.93;23.10;;;;;;;;;;5032997;28;20406;-44
2021/10/12 06:03:44;;;;;;;36.67;23.90;;;;;;;;;;5032853;28;20886;-45
2021/10/12 06:06:11;;;;;;;48.00;25.37;;;;;;;;;;5032984;28;20398;-46
2021/10/12 06:08:37;;;;;;;37.17;22.03;;;;;;;;;;5032795;28;20417;-45
2021/10/12 06:11:04;;;;;;;39.87;23.40;;;;;;;;;;5032948;28;20399;-44
2021/10/12 06:13:30;;;;;;;38.70;23.10;;;;;;;;;;5032563;28;20422;-45
2021/10/12 06:15:57;;;;;;;42.97;24.80;;;;;;;;;;5032842;28;21003;-43
2021/10/12 06:18:23;;;;;;;38.17;22.63;;;;;;;;;;5032651;28;20456;-44
2021/10/12 06:20:49;;;;;;;42.23;24.67;;;;;;;;;;5031579;28;20422;-44
2021/10/12 06:23:15;;;;;;;55.07;24.23;;;;;;;;;;5032016;28;20442;-47
2021/10/12 06:25:41;;;;;;;44.47;21.63;;;;;;;;;;5032545;28;20497;-47
2021/10/12 06:28:07;;;;;;;35.63;19.90;;;;;;;;;;5032502;28;20489;-44
2021/10/12 06:30:34;;;;;;;33.77;22.27;;;;;;;;;;5032607;28;20803;-44
2021/10/12 06:33:00;;;;;;;34.57;21.13;;;;;;;;;;5032555;28;20427;-44
2021/10/12 06:35:30;;;;;;;37.20;21.33;;;;;;;;;;5032288;28;20426;-47
2021/10/12 06:37:57;;;;;;;35.90;19.50;;;;;;;;;;5032305;28;20459;-46
2021/10/12 06:40:23;;;;;;;36.23;20.97;;;;;;;;;;5031278;28;20424;-45
2021/10/12 06:42:49;;;;;;;37.57;20.03;;;;;;;;;;5031881;28;20457;-44
2021/10/12 06:45:16;;;;;;;30.23;20.77;;;;;;;;;;5032428;28;20440;-45
2021/10/12 06:47:43;;;;;;;40.30;20.43;;;;;;;;;;5032171;28;20494;-44
2021/10/12 06:50:09;;;;;;;38.30;18.73;;;;;;;;;;5030825;28;20481;-47
2021/10/12 06:52:35;;;;;;;30.03;18.33;;;;;;;;;;5031724;28;20442;-44
2021/10/12 06:55:01;;;;;;;26.80;18.00;;;;;;;;;;5031658;28;20398;-43
2021/10/12 06:57:27;;;;;;;26.83;18.10;;;;;;;;;;5031951;28;20402;-43
2021/10/12 06:59:53;;;;;;;29.07;17.50;;;;;;;;;;5032057;28;20493;-44
2021/10/12 07:02:19;;;;;;;28.40;18.23;;;;;;;;;;5031672;28;20426;-44
2021/10/12 07:04:45;;;;;;;23.67;16.60;;;;;;;;;;5032470;28;20416;-45
2021/10/12 07:07:11;;;;;;;30.00;15.80;;;;;;;;;;5031775;28;20402;-44
2021/10/12 07:09:37;;;;;;;29.93;17.80;;;;;;;;;;5031827;28;20464;-45
2021/10/12 07:12:03;;;;;;;24.43;17.73;;;;;;;;;;5031543;28;21013;-45
2021/10/12 07:14:29;;;;;;;30.73;17.00;;;;;;;;;;5031863;28;20399;-44
2021/10/12 07:16:56;;;;;;;34.90;19.43;;;;;;;;;;5031746;28;20887;-44
2021/10/12 07:19:22;;;;;;;29.80;17.47;;;;;;;;;;5031815;28;20410;-45
2021/10/12 07:21:48;;;;;;;32.00;17.93;;;;;;;;;;5032044;28;20476;-46
2021/10/12 07:24:14;;;;;;;28.50;18.63;;;;;;;;;;5031840;28;20812;-45
2021/10/12 07:26:40;;;;;;;30.23;17.60;;;;;;;;;;5031381;28;20409;-46
2021/10/12 07:29:06;;;;;;;26.10;17.33;;;;;;;;;;5029826;28;20450;-46
2021/10/12 07:31:32;;;;;;;24.73;16.50;;;;;;;;;;5031087;28;20430;-46
2021/10/12 07:33:58;;;;;;;28.73;17.83;;;;;;;;;;5031404;28;20446;-46
2021/10/12 07:36:24;;;;;;;21.40;16.53;;;;;;;;;;5031596;28;20431;-47
2021/10/12 07:38:50;;;;;;;26.97;16.73;;;;;;;;;;5031479;28;20488;-45
2021/10/12 07:41:16;;;;;;;24.97;16.67;;;;;;;;;;5031531;28;20456;-46
2021/10/12 07:43:42;;;;;;;23.77;16.27;;;;;;;;;;5031384;28;20405;-46
2021/10/12 07:46:08;;;;;;;18.67;15.60;;;;;;;;;;5031560;28;20406;-47
2021/10/12 07:48:34;;;;;;;21.70;16.30;;;;;;;;;;5031398;28;20460;-45
2021/10/12 07:51:00;;;;;;;21.53;16.57;;;;;;;;;;5031578;28;20414;-45
2021/10/12 07:53:28;;;;;;;17.33;14.10;;;;;;;;;;5031118;28;20441;-45
2021/10/12 07:55:58;;;;;;;20.90;14.80;;;;;;;;;;5031754;28;20866;-45
2021/10/12 07:58:24;;;;;;;24.83;15.73;;;;;;;;;;5031415;28;20871;-46
2021/10/12 08:00:50;;;;;;;27.40;15.90;;;;;;;;;;5031468;28;20896;-45
2021/10/12 08:03:17;;;;;;;20.10;15.30;;;;;;;;;;5031103;28;20430;-46
2021/10/12 08:05:43;;;;;;;22.93;15.87;;;;;;;;;;5031468;28;20783;-46
2021/10/12 08:08:09;;;;;;;18.13;15.20;;;;;;;;;;5035028;28;20836;-46
2021/10/12 08:10:36;;;;;;;21.20;16.07;;;;;;;;;;5035083;28;20548;-46
2021/10/12 08:13:08;;;;;;;31.20;18.23;;;;;;;;;;5034852;28;20444;-46
2021/10/12 08:15:34;;;;;;;28.80;17.20;;;;;;;;;;5035067;28;20766;-47
2021/10/12 08:18:00;;;;;;;25.80;18.53;;;;;;;;;;5034920;28;20402;-45
2021/10/12 08:20:26;;;;;;;22.47;17.60;;;;;;;;;;5035011;28;20432;-47
2021/10/12 08:22:54;;;;;;;22.77;16.70;;;;;;;;;;5034772;28;20949;-46
2021/10/12 08:25:20;;;;;;;24.70;16.97;;;;;;;;;;5034937;28;20481;-45
2021/10/12 08:27:46;;;;;;;41.20;19.80;;;;;;;;;;5035212;28;20410;-45
2021/10/12 08:30:12;;;;;;;24.80;16.90;;;;;;;;;;5034702;28;20450;-46
2021/10/12 08:32:39;;;;;;;24.43;17.47;;;;;;;;;;5034498;28;20426;-45
2021/10/12 08:35:08;;;;;;;31.43;18.67;;;;;;;;;;5034766;28;20395;-45
2021/10/12 08:37:34;;;;;;;30.60;19.13;;;;;;;;;;5034649;28;20402;-47
2021/10/12 08:40:00;;;;;;;30.70;20.10;;;;;;;;;;5034641;28;20402;-45
2021/10/12 08:42:27;;;;;;;27.60;19.63;;;;;;;;;;5034319;28;20505;-46
2021/10/12 08:45:00;;;;;;;29.77;19.90;;;;;;;;;;5034467;28;20978;-45
2021/10/12 08:47:27;;;;;;;30.20;18.17;;;;;;;;;;5034466;28;20410;-45
2021/10/12 08:49:53;;;;;;;24.80;18.80;;;;;;;;;;5034378;28;20829;-46
2021/10/12 08:52:20;;;;;;;25.67;20.03;;;;;;;;;;5034007;28;20529;-46
2021/10/12 08:54:47;;;;;;;26.33;18.80;;;;;;;;;;5034719;28;20399;-45
2021/10/12 08:57:13;;;;;;;31.90;19.53;;;;;;;;;;5034320;28;20497;-47
2021/10/12 08:59:39;;;;;;;27.70;19.17;;;;;;;;;;5034210;28;20402;-47
2021/10/12 09:02:12;;;;;;;26.30;17.63;;;;;;;;;;5034101;28;20776;-45
2021/10/12 09:04:39;;;;;;;29.93;18.87;;;;;;;;;;5034422;28;20456;-46
2021/10/12 09:07:15;;;;;;;28.43;18.67;;;;;;;;;;5034156;28;20405;-47
2021/10/12 09:09:41;;;;;;;24.87;19.53;;;;;;;;;;5034027;28;20984;-45
2021/10/12 09:12:07;;;;;;;32.20;19.23;;;;;;;;;;5033701;28;20458;-45
2021/10/12 09:14:33;;;;;;;32.23;19.77;;;;;;;;;;5034057;28;20405;-46
2021/10/12 09:17:05;;;;;;;29.80;21.60;;;;;;;;;;5033479;28;20486;-45
2021/10/12 09:19:35;;;;;;;30.93;21.83;;;;;;;;;;5033973;28;20410;-45
2021/10/12 09:22:06;;;;;;;28.90;19.93;;;;;;;;;;5019112;28;20458;-45
2021/10/12 09:24:36;;;;;;;27.90;20.43;;;;;;;;;;5014258;28;20946;-45
2021/10/12 09:27:10;;;;;;;30.07;20.53;;;;;;;;;;5014032;28;20472;-45
2021/10/12 09:29:39;;;;;;;30.40;20.17;;;;;;;;;;5013829;28;20523;-46
2021/10/12 09:32:06;;;;;;;28.87;21.40;;;;;;;;;;5013623;28;20481;-46
2021/10/12 09:34:34;;;;;;;30.53;19.87;;;;;;;;;;5013792;28;20473;-45
2021/10/12 09:37:00;;;;;;;33.07;21.87;;;;;;;;;;5013521;28;20499;-45
2021/10/12 09:39:31;;;;;;;27.83;19.83;;;;;;;;;;5013683;28;20415;-46
2021/10/12 09:41:59;;;;;;;35.07;21.93;;;;;;;;;;5013445;28;20569;-45
2021/10/12 09:44:25;;;;;;;32.10;23.37;;;;;;;;;;5013541;28;20800;-45
2021/10/12 09:46:51;;;;;;;31.23;22.60;;;;;;;;;;5013557;28;20409;-45
2021/10/12 09:49:24;;;;;;;28.83;20.70;;;;;;;;;;5013480;28;20824;-46
2021/10/12 09:51:57;;;;;;;31.60;20.00;;;;;;;;;;5026477;28;20459;-44
2021/10/12 09:54:23;;;;;;;32.37;19.80;;;;;;;;;;5033053;28;20407;-47
2021/10/12 09:56:50;;;;;;;27.53;21.97;;;;;;;;;;5033065;28;20766;-45
2021/10/12 09:59:16;;;;;;;27.40;20.50;;;;;;;;;;5034313;28;20485;-49
2021/10/12 10:01:45;;;;;;;32.17;20.67;;;;;;;;;;5032891;28;20493;-48
2021/10/12 10:04:11;;;;;;;28.83;20.77;;;;;;;;;;5032741;28;20401;-49
2021/10/12 10:06:42;;;;;;;29.50;22.60;;;;;;;;;;5032955;28;20440;-49
2021/10/12 10:09:08;;;;;;;34.70;21.20;;;;;;;;;;5032891;28;20509;-47
2021/10/12 10:11:42;;;;;;;26.10;20.80;;;;;;;;;;5032787;28;20459;-48
2021/10/12 10:14:09;;;;;;;29.90;22.77;;;;;;;;;;5032763;28;20453;-47
2021/10/12 10:16:39;;;;;;;30.00;20.80;;;;;;;;;;5032485;28;20412;-49
2021/10/12 10:19:12;;;;;;;26.20;20.87;;;;;;;;;;5032764;28;20478;-48
2021/10/12 10:21:41;;;;;;;29.10;20.40;;;;;;;;;;5032491;28;20420;-49
2021/10/12 10:24:19;;;;;;;28.30;20.33;;;;;;;;;;5032932;28;20430;-45
2021/10/12 10:26:44;;;;;;;32.40;20.97;;;;;;;;;;5032634;28;20465;-45
2021/10/12 10:29:18;;;;;;;29.53;20.73;;;;;;;;;;5031653;28;20854;-46
2021/10/12 10:31:46;;;;;;;35.03;22.90;;;;;;;;;;5032403;28;20846;-46
2021/10/12 10:34:31;;;;;;;26.93;20.40;;;;;;;;;;5032506;28;20409;-45
2021/10/12 10:37:15;;;;;;;35.43;20.53;;;;;;;;;;5032427;28;20860;-45
2021/10/12 10:39:42;;;;;;;23.53;19.33;;;;;;;;;;5032259;28;20487;-46
2021/10/12 10:42:08;;;;;;;29.37;20.10;;;;;;;;;;5032169;28;20515;-45
2021/10/12 10:44:53;;;;;;;25.00;19.97;;;;;;;;;;5032368;28;20800;-45
2021/10/12 10:47:38;;;;;;;23.50;18.70;;;;;;;;;;5032410;28;20408;-46
2021/10/12 10:50:09;;;;;;;29.10;18.10;;;;;;;;;;5032120;28;20481;-45
2021/10/12 10:52:41;;;;;;;26.10;18.27;;;;;;;;;;5031658;28;20989;-46
2021/10/12 10:55:07;;;;;;;23.00;18.23;;;;;;;;;;5032029;28;20453;-46
2021/10/12 10:57:34;;;;;;;28.30;21.47;;;;;;;;;;5031985;28;20812;-47
2021/10/12 11:00:26;;;;;;;26.67;20.00;;;;;;;;;;5032044;28;20409;-45
2021/10/12 11:02:52;;;;;;;22.70;17.97;;;;;;;;;;5032224;28;20451;-45
2021/10/12 11:05:37;;;;;;;25.20;16.20;;;;;;;;;;5031939;28;20409;-45
2021/10/12 11:08:10;;;;;;;18.20;16.10;;;;;;;;;;5031827;28;20401;-45
2021/10/12 11:10:36;;;;;;;18.30;15.73;;;;;;;;;;5031751;28;20461;-46
2021/10/12 11:13:02;;;;;;;18.73;16.77;;;;;;;;;;5031510;28;20933;-45
2021/10/12 11:15:28;;;;;;;18.33;15.23;;;;;;;;;;5031871;28;20483;-46
2021/10/12 11:18:03;;;;;;;16.50;14.77;;;;;;;;;;5031755;28;20905;-45
2021/10/12 11:20:38;;;;;;;17.30;13.90;;;;;;;;;;5031811;28;20742;-47
2021/10/12 11:23:05;;;;;;;15.40;13.80;;;;;;;;;;5031522;28;20422;-46
2021/10/12 11:25:31;;;;;;;17.43;15.23;;;;;;;;;;5025330;28;20479;-46
2021/10/12 11:28:05;;;;;;;20.13;14.60;;;;;;;;;;5012221;28;20913;-46
2021/10/12 11:30:35;;;;;;;17.60;15.10;;;;;;;;;;5011425;28;20460;-45
2021/10/12 11:33:04;;;;;;;14.83;13.13;;;;;;;;;;5016932;28;20432;-46
2021/10/12 11:35:34;;;;;;;16.20;13.60;;;;;;;;;;5011119;28;20824;-46
2021/10/12 11:38:00;;;;;;;19.57;14.80;;;;;;;;;;5011340;28;20433;-45
2021/10/12 11:40:26;;;;;;;19.33;13.63;;;;;;;;;;5012937;28;20790;-46
2021/10/12 11:42:53;;;;;;;17.03;15.20;;;;;;;;;;5022769;28;20463;-45
2021/10/12 11:45:19;;;;;;;21.87;13.90;;;;;;;;;;5024784;28;20405;-45
2021/10/12 11:47:45;;;;;;;16.23;14.50;;;;;;;;;;5024391;28;20440;-48
2021/10/12 11:50:12;;;;;;;20.10;14.40;;;;;;;;;;5026114;28;20455;-45
2021/10/12 11:52:38;;;;;;;17.50;14.23;;;;;;;;;;5024214;28;20451;-45
2021/10/12 11:55:05;;;;;;;18.40;14.17;;;;;;;;;;5025080;28;20404;-46
2021/10/12 11:57:31;;;;;;;17.17;14.40;;;;;;;;;;5023027;28;20471;-44
2021/10/12 11:59:57;;;;;;;24.30;18.33;;;;;;;;;;5015681;28;20380;-43
2021/10/12 12:02:24;;;;;;;25.73;18.37;;;;;;;;;;5022087;28;20446;-44
2021/10/12 12:04:51;;;;;;;27.13;18.77;;;;;;;;;;5033279;28;20423;-45
2021/10/12 12:07:17;;;;;;;24.07;17.83;;;;;;;;;;5033057;28;20430;-47
2021/10/12 12:09:46;;;;;;;28.63;19.90;;;;;;;;;;5033390;28;20521;-46
2021/10/12 12:12:13;;;;;;;31.03;21.40;;;;;;;;;;5031857;28;20435;-46
2021/10/12 12:14:39;;;;;;;31.40;22.10;;;;;;;;;;5033156;28;20368;-48
2021/10/12 12:17:13;;;;;;;29.90;23.57;;;;;;;;;;5033062;28;20773;-48
2021/10/12 12:19:43;;;;;;;26.10;21.43;;;;;;;;;;5034294;28;20409;-44
2021/10/12 12:22:13;;;;;;;26.60;20.60;;;;;;;;;;5034825;28;20432;-44
2021/10/12 12:24:39;;;;;;;30.63;22.40;;;;;;;;;;5035044;28;20381;-43
2021/10/12 12:27:05;;;;;;;21.57;17.70;;;;;;;;;;5034831;28;20424;-44
2021/10/12 12:29:31;;;;;;;21.33;18.40;;;;;;;;;;5034738;28;21064;-44
2021/10/12 12:31:58;;;;;;;28.43;18.23;;;;;;;;;;5034340;28;20418;-46
2021/10/12 12:34:38;;;;;;;36.93;20.50;;;;;;;;;;5034738;28;20407;-44
2021/10/12 12:37:05;;;;;;;27.50;19.23;;;;;;;;;;5034648;28;20912;-44
2021/10/12 12:39:49;;;;;;;32.33;19.97;;;;;;;;;;5034747;28;20772;-44
2021/10/12 12:42:29;;;;;;;24.97;18.30;;;;;;;;;;5034314;28;20444;-46
2021/10/12 12:45:11;;;;;;;33.90;16.77;;;;;;;;;;5034635;28;20408;-43
2021/10/12 12:47:38;;;;;;;18.80;9.73;;;;;;;;;;5034380;28;21101;-44
2021/10/12 12:50:08;;;;;;;13.00;9.50;;;;;;;;;;5034275;28;20451;-48
2021/10/12 12:52:34;;;;;;;12.70;10.00;;;;;;;;;;5033120;28;20442;-47
2021/10/12 12:55:00;;;;;;;10.70;7.40;;;;;;;;;;5034232;28;20756;-44
2021/10/12 12:57:26;;;;;;;13.03;8.20;;;;;;;;;;5034181;28;20486;-44
2021/10/12 13:00:02;;;;;;;8.10;6.77;;;;;;;;;;5034087;28;20750;-44
2021/10/12 13:02:29;;;;;;;26.47;7.73;;;;;;;;;;5033883;28;20463;-49
2021/10/12 13:04:55;;;;;;;9.83;8.17;;;;;;;;;;5034016;28;20400;-44
2021/10/12 13:07:21;;;;;;;9.40;8.40;;;;;;;;;;5033956;28;20440;-44
2021/10/12 13:09:49;;;;;;;10.70;6.90;;;;;;;;;;5033995;28;20552;-44
2021/10/12 13:12:17;;;;;;;6.43;5.80;;;;;;;;;;5033783;28;20762;-44
2021/10/12 13:14:47;;;;;;;7.93;4.47;;;;;;;;;;5034027;28;20402;-44
2021/10/12 13:17:14;;;;;;;5.30;4.50;;;;;;;;;;5034215;28;20758;-44
2021/10/12 13:19:40;;;;;;;5.93;4.80;;;;;;;;;;5033860;28;20404;-44
2021/10/12 13:22:06;;;;;;;3.97;3.67;;;;;;;;;;5033478;28;20427;-44
2021/10/12 13:24:32;;;;;;;3.50;3.20;;;;;;;;;;5034004;28;20404;-44
2021/10/12 13:26:58;;;;;;;8.67;3.13;;;;;;;;;;5033742;28;20812;-45
2021/10/12 13:29:23;;;;;;;2.37;2.17;;;;;;;;;;5033629;28;20544;-43
2021/10/12 13:31:49;;;;;;;2.90;2.30;;;;;;;;;;5033417;28;20416;-45
2021/10/12 13:34:15;;;;;;;2.10;2.00;;;;;;;;;;5033619;28;20452;-44
2021/10/12 13:36:41;;;;;;;2.93;2.27;;;;;;;;;;5033282;28;20404;-45
2021/10/12 13:39:07;;;;;;;3.00;1.87;;;;;;;;;;5033576;28;20952;-47
2021/10/12 13:41:33;;;;;;;3.17;1.70;;;;;;;;;;5033418;28;20439;-48
2021/10/12 13:43:59;;;;;;;1.37;1.27;;;;;;;;;;5033214;28;20417;-44
2021/10/12 13:46:25;;;;;;;2.50;1.80;;;;;;;;;;5033281;28;20424;-44
2021/10/12 13:48:51;;;;;;;1.60;1.50;;;;;;;;;;5033232;28;20440;-44
2021/10/12 13:51:17;;;;;;;1.57;1.30;;;;;;;;;;5033026;28;20432;-44
2021/10/12 13:53:43;;;;;;;1.90;1.67;;;;;;;;;;5033002;28;20435;-44
2021/10/12 13:56:09;;;;;;;2.97;1.30;;;;;;;;;;5033553;28;20403;-44
2021/10/12 13:58:35;;;;;;;4.00;1.40;;;;;;;;;;5033100;28;20403;-45
2021/10/12 14:01:02;;;;;;;1.30;1.20;;;;;;;;;;5033152;28;20417;-45
2021/10/12 14:03:28;;;;;;;1.60;1.30;;;;;;;;;;5032803;28;20403;-46
2021/10/12 14:05:53;;;;;;;2.80;1.30;;;;;;;;;;5032759;28;20421;-47
2021/10/12 14:08:19;;;;;;;1.50;1.03;;;;;;;;;;5032893;28;20470;-47
2021/10/12 14:10:45;;;;;;;2.83;1.60;;;;;;;;;;5033065;28;20456;-45
2021/10/12 14:13:11;;;;;;;3.97;1.30;;;;;;;;;;5032655;28;20910;-45
2021/10/12 14:15:37;;;;;;;2.77;1.70;;;;;;;;;;5032915;28;20491;-45
2021/10/12 14:18:03;;;;;;;2.73;1.30;;;;;;;;;;5032664;28;20408;-46
2021/10/12 14:20:29;;;;;;;2.13;1.50;;;;;;;;;;5032609;28;20416;-45
2021/10/12 14:22:55;;;;;;;2.60;1.60;;;;;;;;;;5032401;28;20821;-46